createdAt,value
2022-10-19T00:01:21.755Z,11.58
2022-10-19T00:03:52.595Z,11.53
2022-10-19T00:06:27.128Z,11.49
2022-10-19T00:08:58.107Z,11.44
2022-10-19T00:11:27.118Z,11.41
2022-10-19T00:13:56.968Z,11.39
2022-10-19T00:16:26.982Z,11.37
2022-10-19T00:18:58.042Z,11.36
2022-10-19T00:21:26.509Z,11.35
2022-10-19T00:23:54.469Z,11.31
2022-10-19T00:26:22.038Z,11.28
2022-10-19T00:28:50.075Z,11.24
2022-10-19T00:31:18.091Z,11.19
2022-10-19T00:33:47.058Z,11.15
2022-10-19T00:36:19.433Z,11.09
2022-10-19T00:38:47.433Z,11.05
2022-10-19T00:41:16.361Z,10.99
2022-10-19T00:44:05.332Z,10.94
2022-10-19T00:46:36.271Z,10.88
2022-10-19T00:49:10.928Z,10.83
2022-10-19T00:51:48.897Z,10.80
2022-10-19T00:54:18.806Z,10.76
2022-10-19T00:56:49.853Z,10.72
2022-10-19T00:59:22.134Z,10.69
2022-10-19T01:01:50.399Z,10.67
2022-10-19T01:04:21.014Z,10.64
2022-10-19T01:06:48.744Z,10.61
2022-10-19T01:09:16.466Z,10.60
2022-10-19T01:11:53.225Z,10.57
2022-10-19T01:15:03.192Z,10.53
2022-10-19T01:17:36.715Z,10.48
2022-10-19T01:20:34.044Z,10.47
2022-10-19T01:23:20.441Z,10.46
2022-10-19T01:26:12.965Z,10.45
2022-10-19T01:28:54.155Z,10.45
2022-10-19T01:31:34.704Z,10.47
2022-10-19T01:34:08.940Z,10.49
2022-10-19T01:36:44.589Z,10.49
2022-10-19T01:39:18.025Z,10.51
2022-10-19T01:42:00.428Z,10.52
2022-10-19T01:44:35.920Z,10.54
2022-10-19T01:47:06.649Z,10.54
2022-10-19T01:49:49.606Z,10.50
2022-10-19T01:52:20.935Z,10.51
2022-10-19T01:54:52.183Z,10.51
2022-10-19T01:57:25.977Z,10.53
2022-10-19T01:59:55.798Z,10.53
2022-10-19T02:02:26.321Z,10.53
2022-10-19T02:04:57.352Z,10.52
2022-10-19T02:07:25.950Z,10.53
2022-10-19T02:09:53.618Z,10.53
2022-10-19T02:12:22.598Z,10.51
2022-10-19T02:14:56.610Z,10.50
2022-10-19T02:17:28.981Z,10.49
2022-10-19T02:19:57.977Z,10.48
2022-10-19T02:22:25.582Z,10.47
2022-10-19T02:24:53.374Z,10.46
2022-10-19T02:27:22.027Z,10.43
2022-10-19T02:29:49.944Z,10.39
2022-10-19T02:32:17.606Z,10.38
2022-10-19T02:34:45.393Z,10.35
2022-10-19T02:37:13.047Z,10.34
2022-10-19T02:39:40.996Z,10.31
2022-10-19T02:42:34.787Z,10.28
2022-10-19T02:45:19.737Z,10.25
2022-10-19T02:47:56.069Z,10.21
2022-10-19T02:50:24.359Z,10.18
2022-10-19T02:52:52.062Z,10.17
2022-10-19T02:55:19.802Z,10.15
2022-10-19T02:57:47.460Z,10.13
2022-10-19T03:00:15.163Z,10.11
2022-10-19T03:02:42.784Z,10.10
2022-10-19T03:05:10.391Z,10.08
2022-10-19T03:07:38.007Z,10.05
2022-10-19T03:10:06.460Z,10.04
2022-10-19T03:12:34.115Z,10.02
2022-10-19T03:15:01.787Z,9.99
2022-10-19T03:17:29.464Z,9.99
2022-10-19T03:19:57.052Z,9.97
2022-10-19T03:22:24.783Z,9.96
2022-10-19T03:24:52.447Z,9.96
2022-10-19T03:27:20.184Z,9.96
2022-10-19T03:29:47.869Z,9.97
2022-10-19T03:32:15.632Z,9.97
2022-10-19T03:34:43.297Z,9.99
2022-10-19T03:37:13.349Z,10.00
2022-10-19T03:39:41.379Z,10.01
2022-10-19T03:42:08.954Z,10.04
2022-10-19T03:44:36.519Z,10.03
2022-10-19T03:47:04.261Z,10.04
2022-10-19T03:49:32.966Z,10.05
2022-10-19T03:52:02.325Z,10.06
2022-10-19T03:54:29.915Z,10.06
2022-10-19T03:56:57.907Z,10.07
2022-10-19T03:59:25.495Z,10.08
2022-10-19T04:01:53.067Z,10.07
2022-10-19T04:04:20.955Z,10.08
2022-10-19T04:06:50.143Z,10.09
2022-10-19T04:09:19.656Z,10.07
2022-10-19T04:11:47.829Z,10.07
2022-10-19T04:14:26.897Z,10.08
2022-10-19T04:17:02.102Z,10.08
2022-10-19T04:19:31.395Z,10.09
2022-10-19T04:21:59.615Z,10.09
2022-10-19T04:24:28.072Z,10.09
2022-10-19T04:26:56.525Z,10.09
2022-10-19T04:29:29.504Z,10.10
2022-10-19T04:31:59.435Z,10.08
2022-10-19T04:34:27.495Z,10.08
2022-10-19T04:36:55.292Z,10.08
2022-10-19T04:39:23.020Z,10.09
2022-10-19T04:41:50.615Z,10.09
2022-10-19T04:44:18.383Z,10.08
2022-10-19T04:46:46.137Z,10.07
2022-10-19T04:49:16.498Z,10.08
2022-10-19T04:51:47.125Z,10.08
2022-10-19T04:54:15.020Z,10.08
2022-10-19T04:56:42.753Z,10.07
2022-10-19T04:59:10.729Z,10.05
2022-10-19T05:01:40.424Z,10.04
2022-10-19T05:04:10.823Z,10.03
2022-10-19T05:06:38.762Z,10.03
2022-10-19T05:09:06.707Z,10.02
2022-10-19T05:11:34.364Z,10.02
2022-10-19T05:14:01.963Z,10.02
2022-10-19T05:16:29.816Z,10.02
2022-10-19T05:18:59.046Z,10.00
2022-10-19T05:21:28.998Z,10.00
2022-10-19T05:23:57.658Z,9.99
2022-10-19T05:26:27.322Z,9.99
2022-10-19T05:28:57.694Z,9.97
2022-10-19T05:31:28.258Z,9.98
2022-10-19T05:33:56.514Z,9.99
2022-10-19T05:36:27.688Z,9.98
2022-10-19T05:38:57.806Z,9.97
2022-10-19T05:41:26.294Z,9.99
2022-10-19T05:43:56.002Z,9.99
2022-10-19T05:46:24.937Z,10.01
2022-10-19T05:48:52.990Z,10.03
2022-10-19T05:51:22.377Z,10.03
2022-10-19T05:53:50.324Z,10.05
2022-10-19T05:56:22.684Z,10.07
2022-10-19T05:58:51.483Z,10.08
2022-10-19T06:01:20.268Z,10.09
2022-10-19T06:03:52.127Z,10.11
2022-10-19T06:06:20.199Z,10.15
2022-10-19T06:08:49.068Z,10.16
2022-10-19T06:11:19.616Z,10.18
2022-10-19T06:13:50.638Z,10.21
2022-10-19T06:16:19.982Z,10.22
2022-10-19T06:18:47.705Z,10.25
2022-10-19T06:21:18.858Z,10.26
2022-10-19T06:23:51.028Z,10.28
2022-10-19T06:26:19.504Z,10.30
2022-10-19T06:28:48.922Z,10.34
2022-10-19T06:31:17.385Z,10.37
2022-10-19T06:33:48.575Z,10.38
2022-10-19T06:36:20.535Z,10.40
2022-10-19T06:38:49.775Z,10.44
2022-10-19T06:41:17.939Z,10.46
2022-10-19T06:43:50.318Z,10.47
2022-10-19T06:46:20.687Z,10.47
2022-10-19T06:48:57.031Z,10.49
2022-10-19T06:51:26.737Z,10.49
2022-10-19T06:53:57.047Z,10.52
2022-10-19T06:56:26.801Z,10.54
2022-10-19T06:58:56.916Z,10.57
2022-10-19T07:01:25.303Z,10.61
2022-10-19T07:03:54.139Z,10.63
2022-10-19T07:06:22.117Z,10.66
2022-10-19T07:08:49.887Z,10.68
2022-10-19T07:11:19.909Z,10.64
2022-10-19T07:13:47.578Z,10.64
2022-10-19T07:16:20.781Z,10.64
2022-10-19T07:18:51.479Z,10.65
2022-10-19T07:21:21.272Z,10.66
2022-10-19T07:23:49.540Z,10.69
2022-10-19T07:26:27.977Z,10.73
2022-10-19T07:28:56.890Z,10.74
2022-10-19T07:31:26.413Z,10.76
2022-10-19T07:33:59.825Z,10.76
2022-10-19T07:36:29.472Z,10.76
2022-10-19T07:38:57.753Z,10.77
2022-10-19T07:41:26.512Z,10.80
2022-10-19T07:43:55.142Z,10.86
2022-10-19T07:46:25.491Z,10.93
2022-10-19T07:48:53.842Z,11.00
2022-10-19T07:51:22.785Z,11.02
2022-10-19T07:53:50.893Z,11.02
2022-10-19T07:56:21.769Z,11.00
2022-10-19T07:58:51.377Z,11.00
2022-10-19T08:01:24.925Z,10.97
2022-10-19T08:04:43.350Z,10.92
2022-10-19T08:06:42.261Z,10.85
2022-10-19T08:09:15.595Z,10.82
2022-10-19T08:11:50.609Z,10.77
2022-10-19T08:14:18.354Z,10.76
2022-10-19T08:16:46.011Z,10.74
2022-10-19T08:19:15.518Z,10.72
2022-10-19T08:21:46.450Z,10.69
2022-10-19T08:24:16.365Z,10.65
2022-10-19T08:26:44.728Z,10.64
2022-10-19T08:29:15.176Z,10.62
2022-10-19T08:31:44.658Z,10.62
2022-10-19T08:34:13.328Z,10.60
2022-10-19T08:39:12.591Z,10.49
2022-10-19T08:41:40.344Z,10.45
2022-10-19T08:44:26.942Z,10.43
2022-10-19T08:47:30.759Z,10.40
2022-10-19T08:49:59.353Z,10.38
2022-10-19T08:52:37.433Z,10.37
2022-10-19T08:55:16.482Z,10.34
2022-10-19T08:57:53.359Z,10.35
2022-10-19T09:01:08.408Z,10.35
2022-10-19T09:03:56.301Z,10.35
2022-10-19T09:06:44.998Z,10.36
2022-10-19T09:09:14.187Z,10.40
2022-10-19T09:11:48.905Z,10.42
2022-10-19T09:14:22.870Z,10.43
2022-10-19T09:16:50.797Z,10.43
2022-10-19T09:19:25.942Z,10.48
2022-10-19T09:21:58.200Z,10.56
2022-10-19T09:25:08.560Z,10.63
2022-10-19T09:27:40.679Z,10.79
2022-10-19T09:30:20.220Z,10.89
2022-10-19T09:32:52.011Z,10.91
2022-10-19T09:35:43.443Z,10.89
2022-10-19T09:38:16.719Z,10.88
2022-10-19T09:40:44.696Z,10.82
2022-10-19T09:43:22.196Z,10.78
2022-10-19T09:46:02.605Z,10.76
2022-10-19T09:48:39.712Z,10.73
2022-10-19T09:51:15.998Z,10.71
2022-10-19T09:53:50.704Z,10.70
2022-10-19T09:56:28.218Z,10.69
2022-10-19T09:58:58.454Z,10.67
2022-10-19T10:01:39.903Z,10.69
2022-10-19T10:04:15.926Z,10.76
2022-10-19T10:06:46.713Z,10.84
2022-10-19T10:09:21.504Z,10.95
2022-10-19T10:11:51.478Z,11.09
2022-10-19T10:14:40.113Z,11.16
2022-10-19T10:17:16.287Z,11.20
2022-10-19T10:19:59.285Z,11.20
2022-10-19T10:22:29.632Z,11.12
2022-10-19T10:24:58.093Z,11.00
2022-10-19T10:27:37.463Z,10.84
2022-10-19T10:30:09.793Z,10.72
2022-10-19T10:32:45.863Z,10.65
2022-10-19T10:35:24.890Z,10.61
2022-10-19T10:37:53.285Z,10.62
2022-10-19T10:40:31.661Z,10.70
2022-10-19T10:43:06.691Z,10.73
2022-10-19T10:45:41.444Z,10.75
2022-10-19T10:48:32.252Z,10.78
2022-10-19T10:51:01.219Z,10.78
2022-10-19T10:53:41.279Z,10.81
2022-10-19T10:56:29.959Z,10.81
2022-10-19T10:59:00.666Z,10.83
2022-10-19T11:01:35.335Z,10.88
2022-10-19T11:04:11.106Z,10.88
2022-10-19T11:06:47.285Z,10.89
2022-10-19T11:09:43.353Z,10.87
2022-10-19T11:12:16.239Z,10.84
2022-10-19T11:14:46.019Z,10.82
2022-10-19T11:17:21.395Z,10.85
2022-10-19T11:19:51.373Z,10.95
2022-10-19T11:22:29.906Z,11.05
2022-10-19T11:25:19.269Z,11.05
2022-10-19T11:28:25.582Z,11.03
2022-10-19T11:31:14.615Z,11.15
2022-10-19T11:34:18.028Z,11.20
2022-10-19T11:37:00.105Z,11.29
2022-10-19T11:39:52.731Z,11.39
2022-10-19T11:45:23.995Z,11.51
2022-10-19T11:48:10.191Z,11.52
2022-10-19T11:50:58.579Z,11.52
2022-10-19T11:53:53.370Z,11.55
2022-10-19T11:56:39.170Z,11.53
2022-10-19T11:59:34.343Z,11.61
2022-10-19T12:02:30.724Z,11.66
2022-10-19T12:05:13.236Z,11.72
2022-10-19T12:07:46.786Z,11.85
2022-10-19T12:10:37.621Z,11.86
2022-10-19T12:13:21.908Z,11.78
2022-10-19T12:15:54.207Z,11.71
2022-10-19T12:18:40.794Z,11.64
2022-10-19T12:21:14.907Z,11.58
2022-10-19T12:23:46.777Z,11.53
2022-10-19T12:28:58.291Z,11.48
2022-10-19T12:31:27.975Z,11.48
2022-10-19T12:34:22.641Z,11.47
2022-10-19T12:36:55.244Z,11.47
2022-10-19T12:39:34.944Z,11.45
2022-10-19T12:42:12.074Z,11.40
2022-10-19T12:44:58.890Z,11.36
2022-10-19T12:47:26.856Z,11.30
2022-10-19T12:49:55.988Z,11.27
2022-10-19T12:52:48.480Z,11.22
2022-10-19T12:55:16.069Z,11.17
2022-10-19T12:57:50.293Z,11.16
2022-10-19T13:00:20.729Z,11.15
2022-10-19T13:02:58.547Z,11.15
2022-10-19T13:05:28.888Z,11.13
2022-10-19T13:07:57.270Z,11.18
2022-10-19T13:10:27.491Z,11.13
2022-10-19T13:12:55.791Z,11.07
2022-10-19T13:15:50.966Z,11.01
2022-10-19T13:19:01.179Z,10.96
2022-10-19T13:22:01.266Z,10.92
2022-10-19T13:24:37.059Z,10.89
2022-10-19T13:27:04.746Z,10.87
2022-10-19T13:29:39.003Z,10.92
2022-10-19T13:32:35.096Z,11.03
2022-10-19T13:35:35.344Z,11.11
2022-10-19T13:38:24.312Z,11.09
2022-10-19T13:40:52.067Z,11.10
2022-10-19T13:43:19.733Z,11.20
2022-10-19T13:46:10.315Z,11.27
2022-10-19T13:48:37.864Z,11.34
2022-10-19T13:51:23.156Z,11.43
2022-10-19T13:53:55.314Z,11.55
2022-10-19T13:59:47.887Z,11.77
2022-10-19T14:02:34.210Z,11.81
2022-10-19T14:08:28.565Z,11.71
2022-10-19T14:11:02.823Z,11.59
2022-10-19T14:13:31.466Z,11.56
2022-10-19T14:16:03.254Z,11.52
2022-10-19T14:18:34.295Z,11.48
2022-10-19T14:21:08.281Z,11.42
2022-10-19T14:23:41.863Z,11.36
2022-10-19T14:26:20.413Z,11.30
2022-10-19T14:28:54.065Z,11.22
2022-10-19T14:31:31.604Z,11.16
2022-10-19T14:34:02.645Z,11.08
2022-10-19T14:36:45.376Z,11.00
2022-10-19T14:39:24.082Z,10.91
2022-10-19T14:41:55.849Z,10.79
2022-10-19T14:44:39.705Z,10.69
2022-10-19T14:47:30.618Z,10.60
2022-10-19T14:49:58.447Z,10.49
2022-10-19T14:52:34.376Z,10.42
2022-10-19T14:55:12.634Z,10.32
2022-10-19T14:57:45.809Z,10.24
2022-10-19T15:00:22.511Z,10.17
2022-10-19T15:03:12.650Z,10.13
2022-10-19T15:05:48.322Z,10.08
2022-10-19T15:08:30.679Z,10.06
2022-10-19T15:10:58.692Z,10.04
2022-10-19T15:13:31.783Z,10.01
2022-10-19T15:15:59.516Z,9.99
2022-10-19T15:18:50.897Z,9.95
2022-10-19T15:21:20.818Z,9.88
2022-10-19T15:23:50.597Z,9.83
2022-10-19T15:26:24.194Z,9.75
2022-10-19T15:28:53.781Z,9.71
2022-10-19T15:31:27.161Z,9.63
2022-10-19T15:33:57.601Z,9.56
2022-10-19T15:36:26.386Z,9.51
2022-10-19T15:39:24.632Z,9.46
2022-10-19T15:41:51.733Z,9.39
2022-10-19T15:44:44.051Z,9.36
2022-10-19T15:47:20.639Z,9.31
2022-10-19T15:49:54.328Z,9.24
2022-10-19T15:52:25.571Z,9.19
2022-10-19T15:54:55.872Z,9.14
2022-10-19T15:57:31.136Z,9.09
2022-10-19T16:00:01.387Z,9.05
2022-10-19T16:02:29.113Z,9.02
2022-10-19T16:04:56.788Z,9.00
2022-10-19T16:07:27.568Z,8.96
2022-10-19T16:09:55.474Z,8.90
2022-10-19T16:12:24.870Z,8.84
2022-10-19T16:14:55.934Z,8.80
2022-10-19T16:17:23.746Z,8.75
2022-10-19T16:19:51.422Z,8.71
2022-10-19T16:22:19.102Z,8.65
2022-10-19T16:24:46.711Z,8.59
2022-10-19T16:27:16.389Z,8.54
2022-10-19T16:29:44.690Z,8.49
2022-10-19T16:32:12.328Z,8.45
2022-10-19T16:34:41.299Z,8.43
2022-10-19T16:37:08.878Z,8.37
2022-10-19T16:39:36.516Z,8.33
2022-10-19T16:42:04.143Z,8.30
2022-10-19T16:44:31.725Z,8.27
2022-10-19T16:46:59.702Z,8.24
2022-10-19T16:49:27.472Z,8.20
2022-10-19T16:51:57.395Z,8.17
2022-10-19T16:54:26.935Z,8.14
2022-10-19T16:56:55.829Z,8.11
2022-10-19T16:59:23.641Z,8.08
2022-10-19T17:01:51.462Z,8.05
2022-10-19T17:04:19.475Z,8.01
2022-10-19T17:06:47.365Z,7.97
2022-10-19T17:09:41.290Z,7.93
2022-10-19T17:12:02.911Z,7.88
2022-10-19T17:14:30.495Z,7.83
2022-10-19T17:16:58.112Z,7.79
2022-10-19T17:19:25.917Z,7.75
2022-10-19T17:21:56.554Z,7.71
2022-10-19T17:24:24.201Z,7.67
2022-10-19T17:26:52.818Z,7.63
2022-10-19T17:29:22.147Z,7.60
2022-10-19T17:31:50.781Z,7.55
2022-10-19T17:34:18.781Z,7.52
2022-10-19T17:36:47.215Z,7.48
2022-10-19T17:39:24.416Z,7.46
2022-10-19T17:41:55.240Z,7.40
2022-10-19T17:44:23.103Z,7.36
2022-10-19T17:46:50.774Z,7.32
2022-10-19T17:49:19.041Z,7.28
2022-10-19T17:51:46.943Z,7.24
2022-10-19T17:54:14.968Z,7.21
2022-10-19T17:56:45.401Z,7.18
2022-10-19T17:59:14.399Z,7.16
2022-10-19T18:01:42.432Z,7.10
2022-10-19T18:04:10.344Z,7.08
2022-10-19T18:06:38.672Z,7.07
2022-10-19T18:09:08.999Z,7.04
2022-10-19T18:11:42.840Z,7.01
2022-10-19T18:14:12.620Z,6.98
2022-10-19T18:16:45.663Z,6.94
2022-10-19T18:19:15.429Z,6.92
2022-10-19T18:21:45.028Z,6.89
2022-10-19T18:24:19.461Z,6.86
2022-10-19T18:26:49.243Z,6.81
2022-10-19T18:29:20.473Z,6.75
2022-10-19T18:31:51.621Z,6.69
2022-10-19T18:34:22.299Z,6.61
2022-10-19T18:36:50.974Z,6.55
2022-10-19T18:39:19.059Z,6.49
2022-10-19T18:41:48.460Z,6.42
2022-10-19T18:44:16.146Z,6.36
2022-10-19T18:46:44.602Z,6.31
2022-10-19T18:49:12.884Z,6.27
2022-10-19T18:51:40.533Z,6.21
2022-10-19T18:54:08.664Z,6.18
2022-10-19T18:56:36.797Z,6.15
2022-10-19T18:59:06.993Z,6.11
2022-10-19T19:01:34.705Z,6.06
2022-10-19T19:04:09.081Z,6.01
2022-10-19T19:06:38.117Z,5.98
2022-10-19T19:09:11.243Z,5.96
2022-10-19T19:11:41.178Z,5.93
2022-10-19T19:14:15.908Z,5.92
2022-10-19T19:16:45.012Z,5.88
2022-10-19T19:19:15.523Z,5.85
2022-10-19T19:21:44.703Z,5.84
2022-10-19T19:24:15.868Z,5.83
2022-10-19T19:26:48.416Z,5.81
2022-10-19T19:29:17.158Z,5.77
2022-10-19T19:31:44.996Z,5.74
2022-10-19T19:34:12.942Z,5.72
2022-10-19T19:36:48.320Z,5.70
2022-10-19T19:39:20.886Z,5.69
2022-10-19T19:41:49.734Z,5.66
2022-10-19T19:44:18.682Z,5.67
2022-10-19T19:46:47.062Z,5.66
2022-10-19T19:49:21.437Z,5.64
2022-10-19T19:51:50.169Z,5.61
2022-10-19T19:54:19.492Z,5.57
2022-10-19T19:56:51.074Z,5.55
